sensor_id;sensor_type;location;lat;lon;timestamp;P1;durP1;ratioP1;P2;durP2;ratioP2
77099;SDS011;66602;48.922;2.414;2023-04-03T00:01:11;12.48;;;11.23;;
77099;SDS011;66602;48.922;2.414;2023-04-03T00:03:37;11.55;;;10.57;;
77099;SDS011;66602;48.922;2.414;2023-04-03T00:06:03;11.63;;;10.48;;
77099;SDS011;66602;48.922;2.414;2023-04-03T00:08:30;11.55;;;10.40;;
77099;SDS011;66602;48.922;2.414;2023-04-03T00:10:57;11.50;;;10.50;;
77099;SDS011;66602;48.922;2.414;2023-04-03T00:13:23;11.43;;;10.40;;
77099;SDS011;66602;48.922;2.414;2023-04-03T00:15:49;13.40;;;11.52;;
77099;SDS011;66602;48.922;2.414;2023-04-03T00:18:14;11.57;;;10.60;;
77099;SDS011;66602;48.922;2.414;2023-04-03T00:20:40;12.85;;;10.57;;
77099;SDS011;66602;48.922;2.414;2023-04-03T00:23:06;13.52;;;12.23;;
77099;SDS011;66602;48.922;2.414;2023-04-03T00:25:31;12.32;;;10.77;;
77099;SDS011;66602;48.922;2.414;2023-04-03T00:27:57;12.75;;;11.50;;
77099;SDS011;66602;48.922;2.414;2023-04-03T00:30:23;13.35;;;10.98;;
77099;SDS011;66602;48.922;2.414;2023-04-03T00:32:49;12.13;;;10.73;;
77099;SDS011;66602;48.922;2.414;2023-04-03T00:35:15;11.98;;;10.70;;
77099;SDS011;66602;48.922;2.414;2023-04-03T00:37:43;15.32;;;10.95;;
77099;SDS011;66602;48.922;2.414;2023-04-03T00:40:10;11.90;;;10.70;;
77099;SDS011;66602;48.922;2.414;2023-04-03T00:42:37;12.73;;;11.05;;
77099;SDS011;66602;48.922;2.414;2023-04-03T00:47:30;13.60;;;12.20;;
77099;SDS011;66602;48.922;2.414;2023-04-03T00:49:56;11.60;;;10.50;;
77099;SDS011;66602;48.922;2.414;2023-04-03T00:52:23;15.40;;;11.13;;
77099;SDS011;66602;48.922;2.414;2023-04-03T00:54:54;12.10;;;11.00;;
77099;SDS011;66602;48.922;2.414;2023-04-03T00:57:23;13.10;;;11.77;;
77099;SDS011;66602;48.922;2.414;2023-04-03T00:59:50;12.57;;;11.27;;
77099;SDS011;66602;48.922;2.414;2023-04-03T01:02:20;12.30;;;11.32;;
77099;SDS011;66602;48.922;2.414;2023-04-03T01:04:46;15.57;;;11.35;;
77099;SDS011;66602;48.922;2.414;2023-04-03T01:07:20;11.68;;;10.43;;
77099;SDS011;66602;48.922;2.414;2023-04-03T01:09:56;15.68;;;11.80;;
77099;SDS011;66602;48.922;2.414;2023-04-03T01:12:24;15.77;;;11.68;;
77099;SDS011;66602;48.922;2.414;2023-04-03T01:14:53;13.63;;;11.23;;
77099;SDS011;66602;48.922;2.414;2023-04-03T01:25:13;12.68;;;11.48;;
77099;SDS011;66602;48.922;2.414;2023-04-03T01:27:38;13.13;;;11.88;;
77099;SDS011;66602;48.922;2.414;2023-04-03T01:30:04;13.70;;;12.25;;
77099;SDS011;66602;48.922;2.414;2023-04-03T01:32:30;13.20;;;11.27;;
77099;SDS011;66602;48.922;2.414;2023-04-03T01:34:56;12.60;;;11.43;;
77099;SDS011;66602;48.922;2.414;2023-04-03T01:37:21;13.23;;;12.07;;
77099;SDS011;66602;48.922;2.414;2023-04-03T01:39:47;12.25;;;11.25;;
77099;SDS011;66602;48.922;2.414;2023-04-03T01:42:12;12.77;;;11.38;;
77099;SDS011;66602;48.922;2.414;2023-04-03T01:44:38;13.20;;;10.85;;
77099;SDS011;66602;48.922;2.414;2023-04-03T01:47:05;11.85;;;10.63;;
77099;SDS011;66602;48.922;2.414;2023-04-03T01:49:31;12.13;;;10.88;;
77099;SDS011;66602;48.922;2.414;2023-04-03T01:51:57;16.77;;;11.57;;
77099;SDS011;66602;48.922;2.414;2023-04-03T01:54:22;12.38;;;10.57;;
77099;SDS011;66602;48.922;2.414;2023-04-03T01:56:48;11.05;;;10.07;;
77099;SDS011;66602;48.922;2.414;2023-04-03T01:59:13;11.88;;;10.68;;
77099;SDS011;66602;48.922;2.414;2023-04-03T02:01:42;13.75;;;11.52;;
77099;SDS011;66602;48.922;2.414;2023-04-03T02:04:10;11.93;;;10.70;;
77099;SDS011;66602;48.922;2.414;2023-04-03T02:06:36;11.43;;;10.25;;
77099;SDS011;66602;48.922;2.414;2023-04-03T02:09:01;12.48;;;11.38;;
77099;SDS011;66602;48.922;2.414;2023-04-03T02:11:27;11.52;;;10.18;;
77099;SDS011;66602;48.922;2.414;2023-04-03T02:13:52;16.42;;;10.32;;
77099;SDS011;66602;48.922;2.414;2023-04-03T02:16:17;13.40;;;9.32;;
77099;SDS011;66602;48.922;2.414;2023-04-03T02:18:43;11.15;;;9.95;;
77099;SDS011;66602;48.922;2.414;2023-04-03T02:21:08;10.20;;;9.27;;
77099;SDS011;66602;48.922;2.414;2023-04-03T02:23:34;11.75;;;9.68;;
77099;SDS011;66602;48.922;2.414;2023-04-03T02:26:11;10.63;;;9.80;;
77099;SDS011;66602;48.922;2.414;2023-04-03T02:28:38;11.75;;;9.68;;
77099;SDS011;66602;48.922;2.414;2023-04-03T02:31:06;11.20;;;10.15;;
77099;SDS011;66602;48.922;2.414;2023-04-03T02:33:32;11.05;;;10.05;;
77099;SDS011;66602;48.922;2.414;2023-04-03T02:35:58;10.13;;;9.32;;
77099;SDS011;66602;48.922;2.414;2023-04-03T02:38:23;9.98;;;9.27;;
77099;SDS011;66602;48.922;2.414;2023-04-03T02:40:50;12.73;;;8.95;;
77099;SDS011;66602;48.922;2.414;2023-04-03T02:43:16;9.25;;;8.55;;
77099;SDS011;66602;48.922;2.414;2023-04-03T02:45:42;9.43;;;8.85;;
77099;SDS011;66602;48.922;2.414;2023-04-03T02:48:07;11.30;;;8.50;;
77099;SDS011;66602;48.922;2.414;2023-04-03T02:50:33;9.48;;;8.50;;
77099;SDS011;66602;48.922;2.414;2023-04-03T02:52:59;10.30;;;8.93;;
77099;SDS011;66602;48.922;2.414;2023-04-03T02:55:24;9.13;;;8.18;;
77099;SDS011;66602;48.922;2.414;2023-04-03T02:57:50;9.90;;;9.00;;
77099;SDS011;66602;48.922;2.414;2023-04-03T03:00:15;9.85;;;8.88;;
77099;SDS011;66602;48.922;2.414;2023-04-03T03:02:41;9.70;;;8.80;;
77099;SDS011;66602;48.922;2.414;2023-04-03T03:05:07;9.32;;;8.65;;
77099;SDS011;66602;48.922;2.414;2023-04-03T03:07:33;8.38;;;7.88;;
77099;SDS011;66602;48.922;2.414;2023-04-03T03:09:58;8.27;;;7.50;;
77099;SDS011;66602;48.922;2.414;2023-04-03T03:12:24;10.43;;;8.32;;
77099;SDS011;66602;48.922;2.414;2023-04-03T03:14:49;8.32;;;7.72;;
77099;SDS011;66602;48.922;2.414;2023-04-03T03:17:16;9.07;;;8.18;;
77099;SDS011;66602;48.922;2.414;2023-04-03T03:19:41;8.90;;;8.07;;
77099;SDS011;66602;48.922;2.414;2023-04-03T03:22:07;8.50;;;7.95;;
77099;SDS011;66602;48.922;2.414;2023-04-03T03:24:32;8.77;;;8.02;;
77099;SDS011;66602;48.922;2.414;2023-04-03T03:26:58;8.60;;;7.95;;
77099;SDS011;66602;48.922;2.414;2023-04-03T03:29:23;8.57;;;7.97;;
77099;SDS011;66602;48.922;2.414;2023-04-03T03:31:49;8.15;;;7.57;;
77099;SDS011;66602;48.922;2.414;2023-04-03T03:34:14;8.63;;;8.00;;
77099;SDS011;66602;48.922;2.414;2023-04-03T03:36:40;8.02;;;7.53;;
77099;SDS011;66602;48.922;2.414;2023-04-03T03:39:06;8.50;;;7.72;;
77099;SDS011;66602;48.922;2.414;2023-04-03T03:41:32;8.18;;;7.57;;
77099;SDS011;66602;48.922;2.414;2023-04-03T03:43:57;8.20;;;7.47;;
77099;SDS011;66602;48.922;2.414;2023-04-03T03:46:23;8.57;;;7.97;;
77099;SDS011;66602;48.922;2.414;2023-04-03T03:48:48;8.68;;;7.97;;
77099;SDS011;66602;48.922;2.414;2023-04-03T03:51:14;8.88;;;8.27;;
77099;SDS011;66602;48.922;2.414;2023-04-03T03:53:40;7.95;;;7.45;;
77099;SDS011;66602;48.922;2.414;2023-04-03T03:56:05;8.00;;;7.43;;
77099;SDS011;66602;48.922;2.414;2023-04-03T03:58:31;8.07;;;7.00;;
77099;SDS011;66602;48.922;2.414;2023-04-03T04:01:00;8.82;;;8.20;;
77099;SDS011;66602;48.922;2.414;2023-04-03T04:03:27;8.02;;;7.57;;
77099;SDS011;66602;48.922;2.414;2023-04-03T04:05:52;7.82;;;7.32;;
77099;SDS011;66602;48.922;2.414;2023-04-03T04:08:18;8.30;;;7.65;;
77099;SDS011;66602;48.922;2.414;2023-04-03T04:10:43;8.30;;;7.53;;
77099;SDS011;66602;48.922;2.414;2023-04-03T04:13:09;7.63;;;7.10;;
77099;SDS011;66602;48.922;2.414;2023-04-03T04:15:35;8.15;;;7.63;;
77099;SDS011;66602;48.922;2.414;2023-04-03T04:18:00;8.70;;;8.13;;
77099;SDS011;66602;48.922;2.414;2023-04-03T04:20:26;7.70;;;7.10;;
77099;SDS011;66602;48.922;2.414;2023-04-03T04:22:52;7.70;;;7.13;;
77099;SDS011;66602;48.922;2.414;2023-04-03T04:25:18;8.05;;;7.55;;
77099;SDS011;66602;48.922;2.414;2023-04-03T04:27:43;8.70;;;7.85;;
77099;SDS011;66602;48.922;2.414;2023-04-03T04:30:09;17.88;;;8.23;;
77099;SDS011;66602;48.922;2.414;2023-04-03T04:32:36;7.85;;;7.35;;
77099;SDS011;66602;48.922;2.414;2023-04-03T04:35:02;8.10;;;7.47;;
77099;SDS011;66602;48.922;2.414;2023-04-03T04:37:28;7.65;;;7.00;;
77099;SDS011;66602;48.922;2.414;2023-04-03T04:39:54;8.10;;;7.50;;
77099;SDS011;66602;48.922;2.414;2023-04-03T04:42:20;7.07;;;6.57;;
77099;SDS011;66602;48.922;2.414;2023-04-03T04:44:45;6.28;;;5.97;;
77099;SDS011;66602;48.922;2.414;2023-04-03T04:47:11;7.40;;;6.80;;
77099;SDS011;66602;48.922;2.414;2023-04-03T04:49:36;8.02;;;7.32;;
77099;SDS011;66602;48.922;2.414;2023-04-03T04:52:02;7.30;;;6.80;;
77099;SDS011;66602;48.922;2.414;2023-04-03T04:54:27;7.57;;;7.00;;
77099;SDS011;66602;48.922;2.414;2023-04-03T04:56:53;7.68;;;7.07;;
77099;SDS011;66602;48.922;2.414;2023-04-03T04:59:18;7.47;;;7.00;;
77099;SDS011;66602;48.922;2.414;2023-04-03T05:01:44;8.50;;;7.72;;
77099;SDS011;66602;48.922;2.414;2023-04-03T05:04:09;7.55;;;6.95;;
77099;SDS011;66602;48.922;2.414;2023-04-03T05:06:37;10.63;;;9.30;;
77099;SDS011;66602;48.922;2.414;2023-04-03T05:09:04;12.30;;;7.32;;
77099;SDS011;66602;48.922;2.414;2023-04-03T05:11:30;8.63;;;7.88;;
77099;SDS011;66602;48.922;2.414;2023-04-03T05:13:56;7.90;;;7.30;;
77099;SDS011;66602;48.922;2.414;2023-04-03T05:16:21;13.35;;;9.23;;
77099;SDS011;66602;48.922;2.414;2023-04-03T05:18:47;12.48;;;7.70;;
77099;SDS011;66602;48.922;2.414;2023-04-03T05:21:12;8.45;;;7.65;;
77099;SDS011;66602;48.922;2.414;2023-04-03T05:23:38;9.60;;;6.97;;
77099;SDS011;66602;48.922;2.414;2023-04-03T05:26:04;8.13;;;7.32;;
77099;SDS011;66602;48.922;2.414;2023-04-03T05:28:30;7.05;;;6.65;;
77099;SDS011;66602;48.922;2.414;2023-04-03T05:30:57;7.55;;;6.82;;
77099;SDS011;66602;48.922;2.414;2023-04-03T05:33:24;7.13;;;6.60;;
77099;SDS011;66602;48.922;2.414;2023-04-03T05:35:51;8.93;;;7.63;;
77099;SDS011;66602;48.922;2.414;2023-04-03T05:38:17;13.90;;;8.93;;
77099;SDS011;66602;48.922;2.414;2023-04-03T05:40:43;18.83;;;9.27;;
77099;SDS011;66602;48.922;2.414;2023-04-03T05:43:09;21.70;;;9.70;;
77099;SDS011;66602;48.922;2.414;2023-04-03T05:45:35;8.82;;;8.02;;
77099;SDS011;66602;48.922;2.414;2023-04-03T05:48:00;18.10;;;9.25;;
77099;SDS011;66602;48.922;2.414;2023-04-03T05:50:26;12.25;;;9.32;;
77099;SDS011;66602;48.922;2.414;2023-04-03T05:52:52;8.65;;;8.02;;
77099;SDS011;66602;48.922;2.414;2023-04-03T05:55:21;7.32;;;6.93;;
77099;SDS011;66602;48.922;2.414;2023-04-03T05:57:47;8.50;;;7.90;;
77099;SDS011;66602;48.922;2.414;2023-04-03T06:00:13;7.90;;;7.40;;
77099;SDS011;66602;48.922;2.414;2023-04-03T06:02:42;8.45;;;7.85;;
77099;SDS011;66602;48.922;2.414;2023-04-03T06:05:09;10.23;;;7.90;;
77099;SDS011;66602;48.922;2.414;2023-04-03T06:07:36;8.43;;;7.55;;
77099;SDS011;66602;48.922;2.414;2023-04-03T06:10:02;8.80;;;7.95;;
77099;SDS011;66602;48.922;2.414;2023-04-03T06:12:28;8.75;;;7.93;;
77099;SDS011;66602;48.922;2.414;2023-04-03T06:14:54;8.50;;;7.80;;
77099;SDS011;66602;48.922;2.414;2023-04-03T06:17:20;8.60;;;8.00;;
77099;SDS011;66602;48.922;2.414;2023-04-03T06:19:46;10.63;;;9.55;;
77099;SDS011;66602;48.922;2.414;2023-04-03T06:22:12;8.40;;;7.80;;
77099;SDS011;66602;48.922;2.414;2023-04-03T06:24:38;8.50;;;7.90;;
77099;SDS011;66602;48.922;2.414;2023-04-03T06:27:03;8.20;;;7.70;;
77099;SDS011;66602;48.922;2.414;2023-04-03T06:29:29;8.38;;;7.72;;
77099;SDS011;66602;48.922;2.414;2023-04-03T06:31:55;8.45;;;7.85;;
77099;SDS011;66602;48.922;2.414;2023-04-03T06:34:21;7.60;;;7.20;;
77099;SDS011;66602;48.922;2.414;2023-04-03T06:36:47;8.10;;;7.28;;
77099;SDS011;66602;48.922;2.414;2023-04-03T06:39:17;7.25;;;6.85;;
77099;SDS011;66602;48.922;2.414;2023-04-03T06:41:53;7.50;;;6.95;;
77099;SDS011;66602;48.922;2.414;2023-04-03T06:44:18;8.05;;;7.10;;
77099;SDS011;66602;48.922;2.414;2023-04-03T06:46:44;7.35;;;6.85;;
77099;SDS011;66602;48.922;2.414;2023-04-03T06:49:11;7.60;;;7.10;;
77099;SDS011;66602;48.922;2.414;2023-04-03T06:51:36;7.28;;;6.88;;
77099;SDS011;66602;48.922;2.414;2023-04-03T06:54:03;7.57;;;7.03;;
77099;SDS011;66602;48.922;2.414;2023-04-03T06:56:33;6.95;;;6.45;;
77099;SDS011;66602;48.922;2.414;2023-04-03T06:58:58;7.57;;;6.90;;
77099;SDS011;66602;48.922;2.414;2023-04-03T07:01:25;8.35;;;7.80;;
77099;SDS011;66602;48.922;2.414;2023-04-03T07:03:52;7.93;;;7.00;;
77099;SDS011;66602;48.922;2.414;2023-04-03T07:06:18;7.22;;;6.72;;
77099;SDS011;66602;48.922;2.414;2023-04-03T07:08:45;7.35;;;6.25;;
77099;SDS011;66602;48.922;2.414;2023-04-03T07:11:11;7.00;;;6.47;;
77099;SDS011;66602;48.922;2.414;2023-04-03T07:13:37;10.88;;;6.13;;
77099;SDS011;66602;48.922;2.414;2023-04-03T07:16:03;6.65;;;6.05;;
77099;SDS011;66602;48.922;2.414;2023-04-03T07:18:31;6.32;;;5.88;;
77099;SDS011;66602;48.922;2.414;2023-04-03T07:20:57;5.65;;;5.35;;
77099;SDS011;66602;48.922;2.414;2023-04-03T07:23:23;6.43;;;6.13;;
77099;SDS011;66602;48.922;2.414;2023-04-03T07:25:49;7.95;;;5.40;;
77099;SDS011;66602;48.922;2.414;2023-04-03T07:28:16;6.72;;;6.03;;
77099;SDS011;66602;48.922;2.414;2023-04-03T07:33:14;6.15;;;5.68;;
77099;SDS011;66602;48.922;2.414;2023-04-03T07:35:40;6.65;;;6.15;;
77099;SDS011;66602;48.922;2.414;2023-04-03T07:38:07;6.00;;;5.65;;
77099;SDS011;66602;48.922;2.414;2023-04-03T07:40:33;5.80;;;5.40;;
77099;SDS011;66602;48.922;2.414;2023-04-03T07:42:59;5.40;;;4.90;;
77099;SDS011;66602;48.922;2.414;2023-04-03T07:45:25;5.43;;;4.93;;
77099;SDS011;66602;48.922;2.414;2023-04-03T07:47:51;6.63;;;5.15;;
77099;SDS011;66602;48.922;2.414;2023-04-03T07:50:18;5.15;;;4.80;;
77099;SDS011;66602;48.922;2.414;2023-04-03T07:52:44;4.78;;;4.28;;
77099;SDS011;66602;48.922;2.414;2023-04-03T07:55:10;5.18;;;4.38;;
77099;SDS011;66602;48.922;2.414;2023-04-03T07:57:36;4.43;;;4.22;;
77099;SDS011;66602;48.922;2.414;2023-04-03T08:00:03;4.80;;;4.50;;
77099;SDS011;66602;48.922;2.414;2023-04-03T08:02:29;5.07;;;4.68;;
77099;SDS011;66602;48.922;2.414;2023-04-03T08:04:57;4.32;;;4.03;;
77099;SDS011;66602;48.922;2.414;2023-04-03T08:07:23;5.07;;;4.63;;
77099;SDS011;66602;48.922;2.414;2023-04-03T08:09:49;4.00;;;3.83;;
77099;SDS011;66602;48.922;2.414;2023-04-03T08:12:14;9.85;;;4.10;;
77099;SDS011;66602;48.922;2.414;2023-04-03T08:14:40;4.65;;;4.25;;
77099;SDS011;66602;48.922;2.414;2023-04-03T08:17:06;15.85;;;5.80;;
77099;SDS011;66602;48.922;2.414;2023-04-03T08:19:34;3.88;;;3.47;;
77099;SDS011;66602;48.922;2.414;2023-04-03T08:22:00;7.32;;;3.80;;
77099;SDS011;66602;48.922;2.414;2023-04-03T08:24:28;3.90;;;3.60;;
77099;SDS011;66602;48.922;2.414;2023-04-03T08:26:54;3.88;;;3.60;;
77099;SDS011;66602;48.922;2.414;2023-04-03T08:29:20;3.13;;;3.03;;
77099;SDS011;66602;48.922;2.414;2023-04-03T08:31:46;3.22;;;3.13;;
77099;SDS011;66602;48.922;2.414;2023-04-03T08:34:12;3.65;;;3.20;;
77099;SDS011;66602;48.922;2.414;2023-04-03T08:36:41;3.03;;;2.92;;
77099;SDS011;66602;48.922;2.414;2023-04-03T08:39:07;3.20;;;3.00;;
77099;SDS011;66602;48.922;2.414;2023-04-03T08:41:34;3.20;;;2.78;;
77099;SDS011;66602;48.922;2.414;2023-04-03T08:46:40;2.37;;;2.27;;
77099;SDS011;66602;48.922;2.414;2023-04-03T08:49:18;2.70;;;2.50;;
77099;SDS011;66602;48.922;2.414;2023-04-03T08:51:49;4.45;;;2.42;;
77099;SDS011;66602;48.922;2.414;2023-04-03T08:54:27;1.98;;;1.98;;
77099;SDS011;66602;48.922;2.414;2023-04-03T08:57:14;2.15;;;2.05;;
77099;SDS011;66602;48.922;2.414;2023-04-03T08:59:41;2.75;;;2.55;;
77099;SDS011;66602;48.922;2.414;2023-04-03T09:02:49;2.55;;;2.45;;
77099;SDS011;66602;48.922;2.414;2023-04-03T09:04:58;2.50;;;2.40;;
77099;SDS011;66602;48.922;2.414;2023-04-03T09:07:31;2.30;;;2.10;;
77099;SDS011;66602;48.922;2.414;2023-04-03T09:10:01;2.13;;;2.03;;
77099;SDS011;66602;48.922;2.414;2023-04-03T09:12:31;2.53;;;2.33;;
77099;SDS011;66602;48.922;2.414;2023-04-03T09:15:09;2.20;;;2.10;;
77099;SDS011;66602;48.922;2.414;2023-04-03T09:23:53;2.17;;;2.08;;
77099;SDS011;66602;48.922;2.414;2023-04-03T09:26:24;2.53;;;2.42;;
77099;SDS011;66602;48.922;2.414;2023-04-03T09:29:10;5.07;;;2.35;;
77099;SDS011;66602;48.922;2.414;2023-04-03T09:31:46;1.98;;;1.98;;
77099;SDS011;66602;48.922;2.414;2023-04-03T09:34:25;2.05;;;1.95;;
77099;SDS011;66602;48.922;2.414;2023-04-03T09:36:58;1.98;;;1.88;;
77099;SDS011;66602;48.922;2.414;2023-04-03T09:39:31;3.57;;;1.60;;
77099;SDS011;66602;48.922;2.414;2023-04-03T09:44:48;2.10;;;1.98;;
77099;SDS011;66602;48.922;2.414;2023-04-03T09:47:26;2.00;;;1.90;;
77099;SDS011;66602;48.922;2.414;2023-04-03T09:52:48;2.13;;;2.00;;
77099;SDS011;66602;48.922;2.414;2023-04-03T09:57:59;1.80;;;1.70;;
77099;SDS011;66602;48.922;2.414;2023-04-03T10:00:34;1.95;;;1.85;;
77099;SDS011;66602;48.922;2.414;2023-04-03T10:03:02;2.60;;;2.25;;
77099;SDS011;66602;48.922;2.414;2023-04-03T10:05:36;2.00;;;1.90;;
77099;SDS011;66602;48.922;2.414;2023-04-03T10:10:38;1.83;;;1.73;;
77099;SDS011;66602;48.922;2.414;2023-04-03T10:13:18;1.70;;;1.70;;
77099;SDS011;66602;48.922;2.414;2023-04-03T10:15:48;1.90;;;1.88;;
77099;SDS011;66602;48.922;2.414;2023-04-03T10:20:51;1.88;;;1.77;;
77099;SDS011;66602;48.922;2.414;2023-04-03T10:23:31;2.38;;;2.17;;
77099;SDS011;66602;48.922;2.414;2023-04-03T10:31:23;2.17;;;2.00;;
77099;SDS011;66602;48.922;2.414;2023-04-03T10:39:19;1.63;;;1.52;;
77099;SDS011;66602;48.922;2.414;2023-04-03T10:42:20;2.00;;;1.70;;
77099;SDS011;66602;48.922;2.414;2023-04-03T10:51:18;1.65;;;1.63;;
77099;SDS011;66602;48.922;2.414;2023-04-03T10:59:25;5.65;;;1.88;;
77099;SDS011;66602;48.922;2.414;2023-04-03T11:01:57;1.90;;;1.80;;
77099;SDS011;66602;48.922;2.414;2023-04-03T11:04:28;1.30;;;1.30;;
77099;SDS011;66602;48.922;2.414;2023-04-03T11:07:02;1.83;;;1.73;;
77099;SDS011;66602;48.922;2.414;2023-04-03T11:09:35;1.88;;;1.75;;
77099;SDS011;66602;48.922;2.414;2023-04-03T11:12:12;1.65;;;1.55;;
77099;SDS011;66602;48.922;2.414;2023-04-03T11:14:44;4.38;;;1.77;;
77099;SDS011;66602;48.922;2.414;2023-04-03T11:17:22;1.63;;;1.52;;
77099;SDS011;66602;48.922;2.414;2023-04-03T11:20:13;2.40;;;1.98;;
77099;SDS011;66602;48.922;2.414;2023-04-03T11:22:47;1.73;;;1.40;;
77099;SDS011;66602;48.922;2.414;2023-04-03T11:25:20;2.15;;;1.55;;
77099;SDS011;66602;48.922;2.414;2023-04-03T11:27:59;2.22;;;1.55;;
77099;SDS011;66602;48.922;2.414;2023-04-03T11:33:15;1.65;;;1.55;;
77099;SDS011;66602;48.922;2.414;2023-04-03T11:35:45;2.10;;;1.70;;
77099;SDS011;66602;48.922;2.414;2023-04-03T11:38:23;5.30;;;1.63;;
77099;SDS011;66602;48.922;2.414;2023-04-03T11:40:59;1.60;;;1.50;;
77099;SDS011;66602;48.922;2.414;2023-04-03T11:45:52;1.85;;;1.75;;
77099;SDS011;66602;48.922;2.414;2023-04-03T11:51:02;3.33;;;1.52;;
77099;SDS011;66602;48.922;2.414;2023-04-03T11:53:52;5.95;;;1.67;;
77099;SDS011;66602;48.922;2.414;2023-04-03T11:56:27;1.25;;;1.23;;
77099;SDS011;66602;48.922;2.414;2023-04-03T12:01:43;1.50;;;1.40;;
77099;SDS011;66602;48.922;2.414;2023-04-03T12:04:16;2.55;;;1.20;;
77099;SDS011;66602;48.922;2.414;2023-04-03T12:06:52;1.33;;;1.23;;
77099;SDS011;66602;48.922;2.414;2023-04-03T12:12:01;3.33;;;1.65;;
77099;SDS011;66602;48.922;2.414;2023-04-03T12:15:11;3.58;;;1.60;;
77099;SDS011;66602;48.922;2.414;2023-04-03T12:17:46;1.13;;;1.13;;
77099;SDS011;66602;48.922;2.414;2023-04-03T12:27:14;1.85;;;1.70;;
77099;SDS011;66602;48.922;2.414;2023-04-03T12:40:28;1.88;;;1.33;;
77099;SDS011;66602;48.922;2.414;2023-04-03T12:53:52;1.50;;;1.40;;
77099;SDS011;66602;48.922;2.414;2023-04-03T12:56:31;1.48;;;1.40;;
77099;SDS011;66602;48.922;2.414;2023-04-03T12:59:25;2.25;;;1.50;;
77099;SDS011;66602;48.922;2.414;2023-04-03T13:01:56;1.30;;;1.30;;
77099;SDS011;66602;48.922;2.414;2023-04-03T13:04:23;3.58;;;1.50;;
77099;SDS011;66602;48.922;2.414;2023-04-03T13:06:56;1.73;;;1.20;;
77099;SDS011;66602;48.922;2.414;2023-04-03T13:09:30;1.30;;;1.30;;
77099;SDS011;66602;48.922;2.414;2023-04-03T13:12:09;3.70;;;1.38;;
77099;SDS011;66602;48.922;2.414;2023-04-03T13:14:37;1.48;;;1.25;;
77099;SDS011;66602;48.922;2.414;2023-04-03T13:17:19;1.45;;;1.23;;
77099;SDS011;66602;48.922;2.414;2023-04-03T13:19:46;2.60;;;2.33;;
77099;SDS011;66602;48.922;2.414;2023-04-03T13:25:10;1.83;;;1.38;;
77099;SDS011;66602;48.922;2.414;2023-04-03T13:27:40;1.60;;;1.50;;
77099;SDS011;66602;48.922;2.414;2023-04-03T13:32:56;2.50;;;1.50;;
77099;SDS011;66602;48.922;2.414;2023-04-03T13:35:28;1.67;;;1.52;;
77099;SDS011;66602;48.922;2.414;2023-04-03T13:38:27;1.90;;;1.50;;
77099;SDS011;66602;48.922;2.414;2023-04-03T13:40:56;3.40;;;1.42;;
77099;SDS011;66602;48.922;2.414;2023-04-03T13:43:29;2.97;;;1.77;;
77099;SDS011;66602;48.922;2.414;2023-04-03T13:48:43;1.60;;;1.50;;
77099;SDS011;66602;48.922;2.414;2023-04-03T14:01:46;1.50;;;1.40;;
77099;SDS011;66602;48.922;2.414;2023-04-03T14:07:05;1.38;;;1.38;;
77099;SDS011;66602;48.922;2.414;2023-04-03T14:09:31;2.47;;;1.40;;
77099;SDS011;66602;48.922;2.414;2023-04-03T14:12:01;4.40;;;1.40;;
77099;SDS011;66602;48.922;2.414;2023-04-03T14:14:32;1.48;;;1.30;;
77099;SDS011;66602;48.922;2.414;2023-04-03T14:17:00;1.58;;;1.48;;
77099;SDS011;66602;48.922;2.414;2023-04-03T14:19:29;1.70;;;1.60;;
77099;SDS011;66602;48.922;2.414;2023-04-03T14:21:57;1.95;;;1.85;;
77099;SDS011;66602;48.922;2.414;2023-04-03T14:24:24;5.10;;;1.55;;
77099;SDS011;66602;48.922;2.414;2023-04-03T14:26:50;1.60;;;1.50;;
77099;SDS011;66602;48.922;2.414;2023-04-03T14:29:18;4.10;;;1.38;;
77099;SDS011;66602;48.922;2.414;2023-04-03T14:31:46;1.65;;;1.55;;
77099;SDS011;66602;48.922;2.414;2023-04-03T14:34:12;1.60;;;1.50;;
77099;SDS011;66602;48.922;2.414;2023-04-03T14:36:40;1.52;;;1.38;;
77099;SDS011;66602;48.922;2.414;2023-04-03T14:39:07;1.50;;;1.40;;
77099;SDS011;66602;48.922;2.414;2023-04-03T14:41:35;1.60;;;1.50;;
77099;SDS011;66602;48.922;2.414;2023-04-03T14:44:01;1.40;;;1.30;;
77099;SDS011;66602;48.922;2.414;2023-04-03T14:46:37;1.95;;;1.45;;
77099;SDS011;66602;48.922;2.414;2023-04-03T14:49:18;1.48;;;1.40;;
77099;SDS011;66602;48.922;2.414;2023-04-03T14:51:46;4.75;;;1.80;;
77099;SDS011;66602;48.922;2.414;2023-04-03T14:54:13;1.77;;;1.67;;
77099;SDS011;66602;48.922;2.414;2023-04-03T14:56:40;1.70;;;1.48;;
77099;SDS011;66602;48.922;2.414;2023-04-03T14:59:08;2.90;;;1.70;;
77099;SDS011;66602;48.922;2.414;2023-04-03T15:01:37;1.17;;;1.17;;
77099;SDS011;66602;48.922;2.414;2023-04-03T15:04:38;6.05;;;1.52;;
77099;SDS011;66602;48.922;2.414;2023-04-03T15:06:56;3.40;;;1.60;;
77099;SDS011;66602;48.922;2.414;2023-04-03T15:09:25;1.63;;;1.52;;
77099;SDS011;66602;48.922;2.414;2023-04-03T15:11:53;3.65;;;1.50;;
77099;SDS011;66602;48.922;2.414;2023-04-03T15:14:19;2.63;;;1.65;;
77099;SDS011;66602;48.922;2.414;2023-04-03T15:16:45;1.77;;;1.67;;
77099;SDS011;66602;48.922;2.414;2023-04-03T15:19:11;1.40;;;1.30;;
77099;SDS011;66602;48.922;2.414;2023-04-03T15:21:37;1.70;;;1.60;;
77099;SDS011;66602;48.922;2.414;2023-04-03T15:24:04;1.40;;;1.35;;
77099;SDS011;66602;48.922;2.414;2023-04-03T15:26:30;1.40;;;1.30;;
77099;SDS011;66602;48.922;2.414;2023-04-03T15:28:56;1.60;;;1.55;;
77099;SDS011;66602;48.922;2.414;2023-04-03T15:31:22;1.42;;;1.33;;
77099;SDS011;66602;48.922;2.414;2023-04-03T15:33:48;2.05;;;1.95;;
77099;SDS011;66602;48.922;2.414;2023-04-03T15:36:13;1.55;;;1.45;;
77099;SDS011;66602;48.922;2.414;2023-04-03T15:38:39;1.75;;;1.50;;
77099;SDS011;66602;48.922;2.414;2023-04-03T15:41:04;1.63;;;1.52;;
77099;SDS011;66602;48.922;2.414;2023-04-03T15:43:30;2.95;;;1.52;;
77099;SDS011;66602;48.922;2.414;2023-04-03T15:45:56;1.52;;;1.45;;
77099;SDS011;66602;48.922;2.414;2023-04-03T15:48:24;1.50;;;1.40;;
77099;SDS011;66602;48.922;2.414;2023-04-03T15:50:50;1.95;;;1.40;;
77099;SDS011;66602;48.922;2.414;2023-04-03T15:53:16;1.35;;;1.23;;
77099;SDS011;66602;48.922;2.414;2023-04-03T15:55:41;1.60;;;1.50;;
77099;SDS011;66602;48.922;2.414;2023-04-03T15:58:07;1.70;;;1.60;;
77099;SDS011;66602;48.922;2.414;2023-04-03T16:00:33;1.75;;;1.63;;
77099;SDS011;66602;48.922;2.414;2023-04-03T16:03:02;2.83;;;1.50;;
77099;SDS011;66602;48.922;2.414;2023-04-03T16:05:30;2.45;;;1.35;;
77099;SDS011;66602;48.922;2.414;2023-04-03T16:07:57;1.70;;;1.60;;
77099;SDS011;66602;48.922;2.414;2023-04-03T16:10:25;1.90;;;1.67;;
77099;SDS011;66602;48.922;2.414;2023-04-03T16:12:51;1.40;;;1.40;;
77099;SDS011;66602;48.922;2.414;2023-04-03T16:15:16;1.80;;;1.50;;
77099;SDS011;66602;48.922;2.414;2023-04-03T16:17:42;2.20;;;2.10;;
77099;SDS011;66602;48.922;2.414;2023-04-03T16:20:08;1.75;;;1.65;;
77099;SDS011;66602;48.922;2.414;2023-04-03T16:22:35;2.03;;;1.92;;
77099;SDS011;66602;48.922;2.414;2023-04-03T16:25:01;1.48;;;1.40;;
77099;SDS011;66602;48.922;2.414;2023-04-03T16:27:32;1.75;;;1.35;;
77099;SDS011;66602;48.922;2.414;2023-04-03T16:29:58;1.95;;;1.77;;
77099;SDS011;66602;48.922;2.414;2023-04-03T16:32:25;1.98;;;1.55;;
77099;SDS011;66602;48.922;2.414;2023-04-03T16:34:52;1.30;;;1.27;;
77099;SDS011;66602;48.922;2.414;2023-04-03T16:37:18;1.98;;;1.88;;
77099;SDS011;66602;48.922;2.414;2023-04-03T16:39:44;1.70;;;1.65;;
77099;SDS011;66602;48.922;2.414;2023-04-03T16:42:10;1.75;;;1.65;;
77099;SDS011;66602;48.922;2.414;2023-04-03T16:44:36;1.95;;;1.85;;
77099;SDS011;66602;48.922;2.414;2023-04-03T16:47:02;2.03;;;1.83;;
77099;SDS011;66602;48.922;2.414;2023-04-03T16:49:29;2.60;;;2.40;;
77099;SDS011;66602;48.922;2.414;2023-04-03T16:51:58;2.03;;;1.92;;